Time;durP1;ratioP1;P1;durP2;ratioP2;P2;SDS_P1;SDS_P2;PMS_P1;PMS_P2;Temp;Humidity;BMP_temperature;BMP_pressure;BME280_temperature;BME280_humidity;BME280_pressure;Samples;Min_cycle;Max_cycle;Signal;HPM_P1;HPM_P2
2023/03/21 00:01:28;;;;;;;2.67;2.40;;;;;;;;;;6265807;28;20194;-52
2023/03/21 00:04:29;;;;;;;7.47;5.03;;;;;;;;;;6220309;28;20215;-52
2023/03/21 00:07:30;;;;;;;7.20;6.50;;;;;;;;;;6255510;28;20186;-51
2023/03/21 00:10:31;;;;;;;14.63;13.20;;;;;;;;;;6266483;28;20258;-51
2023/03/21 00:13:33;;;;;;;14.90;12.90;;;;;;;;;;6249542;28;20278;-50
2023/03/21 00:16:35;;;;;;;15.23;13.63;;;;;;;;;;6266410;28;20202;-54
2023/03/21 00:19:37;;;;;;;10.00;9.10;;;;;;;;;;6255580;28;20199;-47
2023/03/21 00:22:38;;;;;;;10.77;9.77;;;;;;;;;;6233790;28;20198;-50
2023/03/21 00:25:39;;;;;;;10.90;9.80;;;;;;;;;;6278033;28;20634;-52
2023/03/21 00:28:41;;;;;;;11.23;10.03;;;;;;;;;;6242043;28;20191;-50
2023/03/21 00:31:42;;;;;;;9.97;7.60;;;;;;;;;;6247320;28;20243;-50
2023/03/21 00:34:43;;;;;;;10.70;8.23;;;;;;;;;;6230609;28;20202;-53
2023/03/21 00:37:45;;;;;;;7.37;6.17;;;;;;;;;;6248358;28;20190;-53
2023/03/21 00:40:46;;;;;;;9.47;6.53;;;;;;;;;;6265036;28;20194;-51
2023/03/21 00:43:47;;;;;;;10.27;7.00;;;;;;;;;;6244763;28;20207;-49
2023/03/21 00:46:48;;;;;;;12.17;7.47;;;;;;;;;;6254953;28;20245;-49
2023/03/21 00:49:49;;;;;;;12.27;6.80;;;;;;;;;;6222775;28;20219;-49
2023/03/21 00:52:50;;;;;;;14.40;7.90;;;;;;;;;;6246868;28;20222;-50
2023/03/21 00:55:51;;;;;;;15.37;8.73;;;;;;;;;;6246966;28;20213;-51
2023/03/21 00:58:52;;;;;;;10.80;6.60;;;;;;;;;;6249997;28;20202;-50
2023/03/21 01:01:53;;;;;;;11.30;6.20;;;;;;;;;;6255651;28;20230;-52
2023/03/21 01:04:54;;;;;;;8.37;5.37;;;;;;;;;;6250676;28;20218;-53
2023/03/21 01:07:56;;;;;;;9.60;5.03;;;;;;;;;;6260005;28;20199;-52
2023/03/21 01:11:00;;;;;;;5.10;3.10;;;;;;;;;;6249283;28;20281;-52
2023/03/21 01:14:01;;;;;;;3.60;2.53;;;;;;;;;;6262812;28;20198;-48
2023/03/21 01:17:03;;;;;;;3.03;2.73;;;;;;;;;;6244694;28;20195;-53
2023/03/21 01:20:05;;;;;;;3.77;2.57;;;;;;;;;;6252995;28;20191;-50
2023/03/21 01:23:06;;;;;;;2.97;2.40;;;;;;;;;;6236815;28;20207;-51
2023/03/21 01:26:08;;;;;;;4.10;2.13;;;;;;;;;;6264808;28;20197;-52
2023/03/21 01:29:09;;;;;;;4.17;2.30;;;;;;;;;;6251799;28;20198;-51
2023/03/21 01:32:10;;;;;;;3.30;2.50;;;;;;;;;;6262641;28;20231;-50
2023/03/21 01:35:11;;;;;;;4.53;2.30;;;;;;;;;;6246142;28;20256;-48
2023/03/21 01:38:12;;;;;;;3.97;2.37;;;;;;;;;;6259657;28;20248;-53
2023/03/21 01:41:33;;;;;;;5.93;2.80;;;;;;;;;;6248433;28;20195;-49
2023/03/21 01:44:51;;;;;;;13.47;2.73;;;;;;;;;;6236595;28;20209;-48
2023/03/21 01:47:52;;;;;;;4.40;2.47;;;;;;;;;;6237198;28;20195;-52
2023/03/21 01:50:53;;;;;;;3.40;2.17;;;;;;;;;;6253823;28;20194;-51
2023/03/21 01:53:55;;;;;;;3.83;2.07;;;;;;;;;;6226978;28;20229;-53
2023/03/21 01:56:57;;;;;;;4.70;2.53;;;;;;;;;;6226927;28;20290;-53
2023/03/21 02:00:10;;;;;;;3.40;2.10;;;;;;;;;;6247690;28;20225;-50
2023/03/21 02:03:15;;;;;;;3.10;2.37;;;;;;;;;;6248511;28;20203;-53
2023/03/21 02:06:29;;;;;;;2.40;2.13;;;;;;;;;;6236909;28;20194;-52
2023/03/21 02:09:32;;;;;;;3.67;2.10;;;;;;;;;;6237021;28;20198;-49
2023/03/21 02:12:33;;;;;;;2.70;2.23;;;;;;;;;;6226498;28;20215;-50
2023/03/21 02:15:38;;;;;;;2.43;2.00;;;;;;;;;;6234882;28;20544;-51
2023/03/21 02:18:46;;;;;;;2.37;2.17;;;;;;;;;;6246705;28;20190;-51
2023/03/21 02:21:50;;;;;;;2.00;1.90;;;;;;;;;;6238677;28;20183;-52
2023/03/21 02:24:54;;;;;;;4.10;2.27;;;;;;;;;;6247699;28;20246;-49
2023/03/21 02:27:56;;;;;;;2.53;2.33;;;;;;;;;;6261082;28;20191;-48
2023/03/21 02:31:18;;;;;;;4.07;2.07;;;;;;;;;;6242536;28;20238;-51
2023/03/21 02:34:28;;;;;;;2.90;2.17;;;;;;;;;;6235190;28;20218;-54
2023/03/21 02:37:50;;;;;;;2.47;2.27;;;;;;;;;;6236331;28;20199;-54
2023/03/21 02:41:04;;;;;;;2.37;1.90;;;;;;;;;;6247808;28;20673;-51
2023/03/21 02:44:10;;;;;;;2.97;2.07;;;;;;;;;;6242727;28;20207;-50
2023/03/21 02:47:13;;;;;;;2.57;1.93;;;;;;;;;;6238527;28;20198;-52
2023/03/21 02:50:22;;;;;;;3.37;1.93;;;;;;;;;;6254440;28;20194;-51
2023/03/21 02:53:25;;;;;;;3.53;1.93;;;;;;;;;;6247530;28;20196;-54
2023/03/21 02:56:27;;;;;;;2.97;2.30;;;;;;;;;;6237418;28;20195;-52
2023/03/21 02:59:28;;;;;;;3.47;2.50;;;;;;;;;;6264513;28;20204;-51
2023/03/21 03:02:29;;;;;;;2.47;1.80;;;;;;;;;;6231704;28;20191;-49
2023/03/21 03:05:33;;;;;;;2.43;2.07;;;;;;;;;;6224620;28;20229;-52
2023/03/21 03:08:37;;;;;;;3.73;2.30;;;;;;;;;;6247925;28;20186;-48
2023/03/21 03:11:43;;;;;;;3.00;2.23;;;;;;;;;;6257087;28;20187;-54
2023/03/21 03:14:52;;;;;;;3.20;2.30;;;;;;;;;;6249129;28;20198;-52
2023/03/21 03:18:05;;;;;;;5.30;2.40;;;;;;;;;;6247326;28;20203;-51
2023/03/21 03:21:06;;;;;;;2.77;2.20;;;;;;;;;;6247021;28;20186;-54
2023/03/21 03:24:07;;;;;;;2.80;2.17;;;;;;;;;;6248294;28;20214;-51
2023/03/21 03:27:14;;;;;;;2.83;2.20;;;;;;;;;;6251505;28;20193;-49
2023/03/21 03:30:15;;;;;;;3.47;2.20;;;;;;;;;;6246166;28;20227;-53
2023/03/21 03:33:22;;;;;;;2.73;2.40;;;;;;;;;;6238078;28;20187;-51
2023/03/21 03:36:29;;;;;;;2.43;2.10;;;;;;;;;;6243222;28;20269;-50
2023/03/21 03:39:35;;;;;;;3.10;2.37;;;;;;;;;;6259547;28;20206;-54
2023/03/21 03:42:51;;;;;;;2.47;2.10;;;;;;;;;;6272713;28;20195;-49
2023/03/21 03:45:59;;;;;;;2.70;2.13;;;;;;;;;;6256323;28;20188;-48
2023/03/21 03:49:04;;;;;;;3.77;2.40;;;;;;;;;;6237062;28;20183;-50
2023/03/21 03:52:11;;;;;;;2.77;1.97;;;;;;;;;;6244683;28;20187;-53
2023/03/21 03:55:14;;;;;;;2.60;2.30;;;;;;;;;;6245717;28;20195;-52
2023/03/21 03:58:19;;;;;;;4.23;2.13;;;;;;;;;;6243428;28;20199;-50
2023/03/21 04:01:20;;;;;;;2.30;1.90;;;;;;;;;;6246941;28;20245;-54
2023/03/21 04:04:27;;;;;;;2.60;2.40;;;;;;;;;;6255852;28;20230;-55
2023/03/21 04:07:28;;;;;;;2.60;2.20;;;;;;;;;;6262456;28;20195;-52
2023/03/21 04:10:29;;;;;;;3.10;2.20;;;;;;;;;;6266007;28;20199;-53
2023/03/21 04:13:30;;;;;;;2.63;2.30;;;;;;;;;;6256913;28;20219;-54
2023/03/21 04:16:31;;;;;;;4.93;2.10;;;;;;;;;;6231533;28;20225;-55
2023/03/21 04:19:32;;;;;;;3.03;2.57;;;;;;;;;;6262378;28;20219;-54
2023/03/21 04:22:33;;;;;;;2.90;2.10;;;;;;;;;;6266546;28;20331;-52
2023/03/21 04:25:35;;;;;;;5.23;2.40;;;;;;;;;;6234039;28;20213;-55
2023/03/21 04:28:36;;;;;;;2.80;2.10;;;;;;;;;;6239994;28;20210;-50
2023/03/21 04:31:40;;;;;;;5.33;2.47;;;;;;;;;;6255704;28;20235;-55
2023/03/21 04:34:42;;;;;;;4.63;2.30;;;;;;;;;;6264333;28;20190;-49
2023/03/21 04:37:44;;;;;;;3.47;2.23;;;;;;;;;;6245723;28;20211;-50
2023/03/21 04:40:45;;;;;;;2.77;2.43;;;;;;;;;;6230847;28;20182;-49
2023/03/21 04:43:46;;;;;;;2.97;2.20;;;;;;;;;;6230011;28;20225;-52
2023/03/21 04:46:47;;;;;;;3.17;2.50;;;;;;;;;;6244904;28;20270;-52
2023/03/21 04:49:48;;;;;;;6.03;3.80;;;;;;;;;;6231455;28;20277;-53
2023/03/21 04:52:49;;;;;;;4.67;3.40;;;;;;;;;;6241598;28;20277;-53
2023/03/21 04:55:50;;;;;;;4.90;2.67;;;;;;;;;;6256733;28;20190;-48
2023/03/21 04:58:51;;;;;;;2.90;2.03;;;;;;;;;;6253858;28;20206;-51
2023/03/21 05:01:55;;;;;;;4.03;2.23;;;;;;;;;;6243806;28;20178;-48
2023/03/21 05:04:57;;;;;;;5.37;2.23;;;;;;;;;;6234457;28;20260;-52
2023/03/21 05:07:59;;;;;;;4.80;2.60;;;;;;;;;;6237237;28;20197;-49
2023/03/21 05:11:00;;;;;;;3.40;2.37;;;;;;;;;;6225016;28;20182;-54
2023/03/21 05:14:01;;;;;;;3.40;2.30;;;;;;;;;;6244136;28;20190;-54
2023/03/21 05:17:03;;;;;;;4.60;2.60;;;;;;;;;;6231039;28;20190;-58
2023/03/21 05:20:08;;;;;;;3.30;2.60;;;;;;;;;;6222493;28;20226;-56
2023/03/21 05:23:12;;;;;;;3.07;2.50;;;;;;;;;;6254829;28;20224;-56
2023/03/21 05:26:13;;;;;;;4.50;2.67;;;;;;;;;;6244690;28;20222;-54
2023/03/21 05:29:14;;;;;;;4.13;2.20;;;;;;;;;;6229185;28;20285;-50
2023/03/21 05:32:15;;;;;;;5.77;2.50;;;;;;;;;;6237906;28;20237;-53
2023/03/21 05:35:16;;;;;;;2.90;2.50;;;;;;;;;;6258143;28;20251;-55
2023/03/21 05:38:17;;;;;;;4.17;2.50;;;;;;;;;;6237182;28;20194;-55
2023/03/21 05:41:20;;;;;;;3.97;2.63;;;;;;;;;;6262661;28;20285;-59
2023/03/21 05:44:21;;;;;;;4.70;3.27;;;;;;;;;;6262513;28;20214;-51
2023/03/21 05:47:22;;;;;;;4.73;2.90;;;;;;;;;;6262152;28;20190;-51
2023/03/21 05:50:23;;;;;;;4.07;3.47;;;;;;;;;;6247425;28;20183;-51
2023/03/21 05:53:24;;;;;;;6.47;3.10;;;;;;;;;;6226968;28;20333;-51
2023/03/21 05:56:25;;;;;;;5.83;3.50;;;;;;;;;;6217943;28;20294;-51
2023/03/21 05:59:26;;;;;;;5.90;3.43;;;;;;;;;;6224360;28;20277;-52
2023/03/21 06:02:27;;;;;;;4.50;3.10;;;;;;;;;;6252888;28;20282;-51
2023/03/21 06:05:28;;;;;;;5.17;3.00;;;;;;;;;;6262472;28;20214;-53
2023/03/21 06:08:30;;;;;;;3.67;2.53;;;;;;;;;;6228384;28;20277;-49
2023/03/21 06:11:33;;;;;;;6.10;4.07;;;;;;;;;;6221725;28;20191;-53
2023/03/21 06:14:34;;;;;;;4.67;3.07;;;;;;;;;;6243183;28;20191;-50
2023/03/21 06:17:35;;;;;;;3.67;2.40;;;;;;;;;;6239696;28;20658;-49
2023/03/21 06:20:36;;;;;;;5.07;3.63;;;;;;;;;;6232193;28;20221;-52
2023/03/21 06:23:38;;;;;;;6.60;3.50;;;;;;;;;;6232010;28;20244;-53
2023/03/21 06:26:41;;;;;;;4.27;3.20;;;;;;;;;;6264168;28;20207;-50
2023/03/21 06:29:42;;;;;;;5.20;3.07;;;;;;;;;;6263426;28;20225;-53
2023/03/21 06:32:43;;;;;;;4.13;3.10;;;;;;;;;;6260268;28;20248;-52
2023/03/21 06:35:44;;;;;;;4.57;2.57;;;;;;;;;;6266790;28;20194;-54
2023/03/21 06:38:45;;;;;;;3.67;3.17;;;;;;;;;;6255442;28;20204;-49
2023/03/21 06:41:46;;;;;;;4.07;2.87;;;;;;;;;;6238773;28;20191;-51
2023/03/21 06:44:47;;;;;;;3.27;2.93;;;;;;;;;;6224854;28;20229;-50
2023/03/21 06:47:49;;;;;;;4.20;2.50;;;;;;;;;;6240185;28;20213;-52
2023/03/21 06:50:50;;;;;;;5.20;2.97;;;;;;;;;;6267183;28;20190;-54
2023/03/21 06:53:51;;;;;;;4.60;2.97;;;;;;;;;;6242234;28;20191;-53
2023/03/21 06:56:53;;;;;;;4.13;2.80;;;;;;;;;;6228370;28;20321;-51
2023/03/21 06:59:54;;;;;;;3.50;2.87;;;;;;;;;;6233439;28;20199;-51
2023/03/21 07:02:55;;;;;;;4.10;3.70;;;;;;;;;;6263651;28;20210;-51
2023/03/21 07:05:56;;;;;;;3.90;3.13;;;;;;;;;;6259281;28;20190;-50
2023/03/21 07:08:58;;;;;;;3.00;2.70;;;;;;;;;;6219953;28;20188;-50
2023/03/21 07:11:59;;;;;;;4.67;2.93;;;;;;;;;;6266317;28;20186;-49
2023/03/21 07:15:00;;;;;;;4.17;3.07;;;;;;;;;;6264748;28;20198;-50
2023/03/21 07:18:01;;;;;;;4.27;3.20;;;;;;;;;;6245473;28;20229;-50
2023/03/21 07:21:02;;;;;;;5.20;2.93;;;;;;;;;;6266207;28;20219;-52
2023/03/21 07:24:03;;;;;;;5.20;3.20;;;;;;;;;;6263808;28;20217;-52
2023/03/21 07:27:04;;;;;;;4.07;3.00;;;;;;;;;;6235139;28;20249;-50
2023/03/21 07:30:06;;;;;;;6.67;2.80;;;;;;;;;;6255046;28;20234;-50
2023/03/21 07:33:07;;;;;;;4.50;3.30;;;;;;;;;;6229544;28;20202;-53
2023/03/21 07:36:15;;;;;;;4.80;2.67;;;;;;;;;;6249393;28;20193;-54
2023/03/21 07:39:16;;;;;;;4.50;3.20;;;;;;;;;;6248070;28;20282;-53
2023/03/21 07:42:17;;;;;;;4.13;3.00;;;;;;;;;;6265871;28;20202;-52
2023/03/21 07:45:24;;;;;;;3.30;3.00;;;;;;;;;;6248800;28;20206;-49
2023/03/21 07:48:25;;;;;;;5.77;3.13;;;;;;;;;;6249203;28;20278;-52
2023/03/21 07:51:26;;;;;;;5.60;3.10;;;;;;;;;;6262138;28;20206;-52
2023/03/21 07:54:27;;;;;;;3.77;2.70;;;;;;;;;;6231238;28;20198;-54
2023/03/21 07:57:28;;;;;;;4.00;2.97;;;;;;;;;;6239048;28;20277;-48
2023/03/21 08:00:29;;;;;;;4.77;2.67;;;;;;;;;;6231974;28;20194;-49
2023/03/21 08:03:32;;;;;;;7.57;2.90;;;;;;;;;;6255951;28;20218;-50
2023/03/21 08:06:33;;;;;;;6.03;2.70;;;;;;;;;;6232988;28;20214;-53
2023/03/21 08:09:35;;;;;;;2.80;2.50;;;;;;;;;;6224515;28;20190;-52
2023/03/21 08:12:36;;;;;;;5.77;2.53;;;;;;;;;;6251416;28;20190;-54
2023/03/21 08:15:38;;;;;;;3.40;2.27;;;;;;;;;;6264525;28;20232;-48
2023/03/21 08:18:39;;;;;;;3.20;2.90;;;;;;;;;;6264152;28;20253;-51
2023/03/21 08:21:40;;;;;;;4.27;2.30;;;;;;;;;;6228446;28;20193;-48
2023/03/21 08:24:41;;;;;;;2.63;2.30;;;;;;;;;;6259752;28;20215;-52
2023/03/21 08:27:43;;;;;;;2.67;2.10;;;;;;;;;;6223472;28;20206;-50
2023/03/21 08:30:44;;;;;;;2.40;2.17;;;;;;;;;;6247127;28;20291;-49
2023/03/21 08:33:46;;;;;;;3.23;2.57;;;;;;;;;;6230829;28;20208;-48
2023/03/21 08:36:47;;;;;;;1.90;1.63;;;;;;;;;;6229476;28;20207;-53
2023/03/21 08:39:48;;;;;;;3.83;1.93;;;;;;;;;;6255810;28;20248;-52
2023/03/21 08:42:49;;;;;;;2.77;1.60;;;;;;;;;;6230935;28;20253;-54
2023/03/21 08:45:50;;;;;;;1.90;1.60;;;;;;;;;;6252553;28;20195;-48
2023/03/21 08:48:51;;;;;;;2.50;1.57;;;;;;;;;;6251884;28;20198;-49
2023/03/21 08:51:55;;;;;;;2.83;1.43;;;;;;;;;;6242099;28;20190;-50
2023/03/21 08:54:56;;;;;;;2.23;1.73;;;;;;;;;;6247464;28;20246;-49
2023/03/21 08:57:57;;;;;;;2.50;2.07;;;;;;;;;;6228317;28;20205;-51
2023/03/21 09:00:58;;;;;;;3.13;1.80;;;;;;;;;;6253030;28;20199;-49
2023/03/21 09:03:59;;;;;;;5.30;2.40;;;;;;;;;;6223552;28;20223;-54
2023/03/21 09:07:03;;;;;;;2.83;1.30;;;;;;;;;;6258836;28;20233;-50
2023/03/21 09:10:05;;;;;;;1.83;1.13;;;;;;;;;;6263818;28;20227;-51
2023/03/21 09:13:06;;;;;;;1.63;1.10;;;;;;;;;;6259779;28;20203;-49
2023/03/21 09:16:08;;;;;;;1.17;0.90;;;;;;;;;;6246553;28;20226;-53
2023/03/21 09:19:09;;;;;;;1.10;1.00;;;;;;;;;;6229048;28;20187;-50
2023/03/21 09:22:16;;;;;;;0.60;0.50;;;;;;;;;;6224747;28;20195;-53
2023/03/21 09:25:18;;;;;;;1.13;1.03;;;;;;;;;;6253656;28;20223;-49
2023/03/21 09:28:20;;;;;;;0.80;0.77;;;;;;;;;;6247588;28;20194;-49
2023/03/21 09:31:22;;;;;;;2.00;0.80;;;;;;;;;;6258748;28;20242;-52
2023/03/21 09:34:23;;;;;;;1.93;0.80;;;;;;;;;;6260262;28;20206;-49
2023/03/21 09:37:24;;;;;;;1.17;0.90;;;;;;;;;;6221999;28;20314;-49
2023/03/21 09:40:44;;;;;;;2.00;0.77;;;;;;;;;;6228375;28;20202;-51
2023/03/21 09:43:49;;;;;;;0.60;0.60;;;;;;;;;;6246374;28;20284;-48
2023/03/21 09:46:50;;;;;;;1.20;0.90;;;;;;;;;;6245390;28;20189;-51
2023/03/21 09:49:58;;;;;;;2.40;0.93;;;;;;;;;;6239691;28;20192;-50
2023/03/21 09:53:09;;;;;;;1.87;0.90;;;;;;;;;;6244646;28;20724;-52
2023/03/21 09:56:14;;;;;;;1.03;0.80;;;;;;;;;;6249718;28;20186;-54
2023/03/21 09:59:41;;;;;;;2.23;1.90;;;;;;;;;;6245672;28;20198;-49
2023/03/21 10:02:48;;;;;;;6.10;2.37;;;;;;;;;;6221192;28;20210;-51
2023/03/21 10:05:51;;;;;;;2.60;1.30;;;;;;;;;;6244518;28;20317;-50
2023/03/21 10:08:52;;;;;;;2.67;1.50;;;;;;;;;;6238234;28;20198;-48
2023/03/21 10:11:56;;;;;;;2.83;1.43;;;;;;;;;;6251479;28;20190;-51
2023/03/21 10:15:00;;;;;;;2.67;1.70;;;;;;;;;;6237580;28;20218;-49
2023/03/21 10:18:02;;;;;;;2.90;1.63;;;;;;;;;;6245593;28;20196;-51
2023/03/21 10:21:04;;;;;;;2.80;1.50;;;;;;;;;;6242975;28;20200;-50
2023/03/21 10:24:05;;;;;;;2.77;1.50;;;;;;;;;;6234604;28;20227;-49
2023/03/21 10:27:07;;;;;;;1.83;1.30;;;;;;;;;;6219936;28;20253;-49
2023/03/21 10:30:19;;;;;;;3.60;1.00;;;;;;;;;;6228166;28;20248;-52
2023/03/21 10:33:22;;;;;;;2.80;1.40;;;;;;;;;;6244248;28;20198;-52
2023/03/21 10:36:25;;;;;;;2.67;1.57;;;;;;;;;;6244613;28;20198;-50
2023/03/21 10:39:31;;;;;;;2.23;1.47;;;;;;;;;;6251562;28;20190;-51
2023/03/21 10:42:34;;;;;;;1.93;1.30;;;;;;;;;;6238201;28;20237;-49
2023/03/21 10:45:35;;;;;;;1.57;1.30;;;;;;;;;;6234384;28;20223;-50
2023/03/21 10:48:37;;;;;;;2.40;1.43;;;;;;;;;;6217434;28;20194;-53
2023/03/21 10:51:39;;;;;;;3.97;1.53;;;;;;;;;;6237387;28;20188;-54
2023/03/21 10:54:40;;;;;;;3.47;1.53;;;;;;;;;;6259537;28;20199;-49
2023/03/21 10:57:41;;;;;;;2.53;1.60;;;;;;;;;;6248483;28;20207;-49
2023/03/21 11:00:43;;;;;;;1.70;1.40;;;;;;;;;;6243687;28;20202;-49
2023/03/21 11:03:45;;;;;;;1.43;1.27;;;;;;;;;;6224922;28;20216;-51
2023/03/21 11:07:00;;;;;;;2.77;1.50;;;;;;;;;;6223165;28;20276;-48
2023/03/21 11:10:11;;;;;;;2.53;1.40;;;;;;;;;;6247008;28;20295;-51
2023/03/21 11:13:17;;;;;;;3.57;1.33;;;;;;;;;;6246526;28;20200;-53
2023/03/21 11:16:22;;;;;;;2.97;1.13;;;;;;;;;;6250323;28;20326;-48
2023/03/21 11:19:31;;;;;;;1.73;1.30;;;;;;;;;;6249420;28;20214;-51
2023/03/21 11:22:42;;;;;;;1.90;0.93;;;;;;;;;;6256284;28;20282;-49
2023/03/21 11:25:43;;;;;;;1.80;1.20;;;;;;;;;;6265894;28;20211;-48
2023/03/21 11:28:46;;;;;;;1.43;1.10;;;;;;;;;;6258669;28;20187;-51
2023/03/21 11:31:47;;;;;;;3.13;1.00;;;;;;;;;;6233694;28;20266;-49
2023/03/21 11:34:53;;;;;;;1.37;0.80;;;;;;;;;;6231491;28;20298;-54
2023/03/21 11:37:56;;;;;;;1.43;0.83;;;;;;;;;;6241637;28;20200;-52
2023/03/21 11:40:59;;;;;;;1.30;1.00;;;;;;;;;;6246246;28;20265;-51
2023/03/21 11:44:00;;;;;;;0.70;0.70;;;;;;;;;;6238930;28;20203;-53
2023/03/21 11:47:02;;;;;;;1.73;1.00;;;;;;;;;;6248366;28;20248;-51
2023/03/21 11:50:06;;;;;;;1.20;1.07;;;;;;;;;;6249819;28;20184;-54
2023/03/21 11:53:07;;;;;;;1.17;1.07;;;;;;;;;;6244110;28;20195;-53
2023/03/21 11:56:17;;;;;;;1.53;0.70;;;;;;;;;;6240821;28;20215;-51
2023/03/21 11:59:27;;;;;;;0.70;0.70;;;;;;;;;;6230217;28;20196;-52
2023/03/21 12:02:53;;;;;;;0.83;0.63;;;;;;;;;;6243896;28;20206;-50
2023/03/21 12:06:00;;;;;;;1.30;1.20;;;;;;;;;;6211657;28;20208;-53
2023/03/21 12:09:02;;;;;;;0.77;0.77;;;;;;;;;;6241471;28;20200;-54
2023/03/21 12:12:22;;;;;;;1.80;0.80;;;;;;;;;;6243571;28;20184;-50
2023/03/21 12:15:26;;;;;;;1.30;0.90;;;;;;;;;;6249460;28;20241;-55
2023/03/21 12:18:45;;;;;;;1.43;0.80;;;;;;;;;;6245090;28;20184;-54
2023/03/21 12:21:59;;;;;;;0.70;0.70;;;;;;;;;;6237049;28;20202;-55
2023/03/21 12:25:10;;;;;;;1.00;0.90;;;;;;;;;;6240895;28;20217;-52
2023/03/21 12:28:31;;;;;;;1.37;0.90;;;;;;;;;;6258046;28;20188;-51
2023/03/21 12:31:33;;;;;;;1.60;1.50;;;;;;;;;;6243211;28;20309;-52
2023/03/21 12:34:43;;;;;;;1.90;1.13;;;;;;;;;;6242644;28;20194;-53
2023/03/21 12:38:03;;;;;;;0.90;0.90;;;;;;;;;;6251236;28;20223;-55
2023/03/21 12:41:19;;;;;;;1.20;1.00;;;;;;;;;;6249587;28;20245;-54
2023/03/21 12:44:21;;;;;;;1.00;0.90;;;;;;;;;;6240260;28;20210;-54
2023/03/21 12:47:24;;;;;;;1.43;1.10;;;;;;;;;;6279622;28;20186;-54
2023/03/21 12:50:32;;;;;;;1.30;0.90;;;;;;;;;;6230110;28;20190;-49
2023/03/21 12:53:48;;;;;;;1.67;0.80;;;;;;;;;;6246271;28;20258;-52
2023/03/21 12:56:54;;;;;;;1.37;1.17;;;;;;;;;;6237215;28;20191;-52
2023/03/21 12:59:59;;;;;;;1.70;1.00;;;29.00;25.20;;;;;;6269657;28;20215;-49
2023/03/21 13:03:16;;;;;;;1.00;0.90;;;30.30;23.70;;;;;;6244661;28;20202;-51
2023/03/21 13:06:19;;;;;;;0.97;0.83;;;;;;;;;;6249248;28;20245;-50
2023/03/21 13:09:32;;;;;;;1.43;1.00;;;32.60;21.80;;;;;;6244065;28;20219;-54
2023/03/21 13:12:45;;;;;;;2.70;1.33;;;;;;;;;;6237996;28;20194;-50
2023/03/21 13:16:16;;;;;;;1.17;0.80;;;32.20;21.90;;;;;;6233823;28;20218;-49
2023/03/21 13:19:42;;;;;;;2.40;1.10;;;31.90;23.20;;;;;;6243423;28;20198;-49
2023/03/21 13:22:44;;;;;;;0.87;0.80;;;32.90;21.30;;;;;;6244193;28;20293;-51
2023/03/21 13:25:46;;;;;;;1.30;0.90;;;;;;;;;;6229466;28;20222;-51
2023/03/21 13:28:47;;;;;;;2.50;1.00;;;;;;;;;;6234677;28;20227;-50
2023/03/21 13:31:50;;;;;;;1.07;0.90;;;;;;;;;;6223495;28;20257;-52
2023/03/21 13:34:59;;;;;;;1.40;0.87;;;35.80;19.30;;;;;;6233241;28;20313;-50
2023/03/21 13:38:03;;;;;;;1.10;1.00;;;;;;;;;;6241770;28;20183;-52
2023/03/21 13:41:17;;;;;;;0.83;0.60;;;34.40;20.20;;;;;;6239744;28;20201;-52
2023/03/21 13:44:23;;;;;;;2.03;0.90;;;;;;;;;;6260975;28;20269;-48
2023/03/21 13:47:56;;;;;;;0.60;0.60;;;32.40;21.20;;;;;;6248385;28;20201;-48
2023/03/21 13:51:01;;;;;;;0.90;0.80;;;31.10;22.10;;;;;;6231186;28;20230;-50
2023/03/21 13:54:06;;;;;;;1.90;0.90;;;32.40;21.40;;;;;;6255486;28;20199;-51
2023/03/21 13:57:25;;;;;;;0.90;0.77;;;33.10;20.70;;;;;;6232153;28;20191;-52
2023/03/21 14:00:32;;;;;;;1.60;0.90;;;;;;;;;;6257488;28;20274;-52
2023/03/21 14:03:34;;;;;;;3.30;0.80;;;;;;;;;;6281323;28;20214;-53
2023/03/21 14:06:39;;;;;;;0.57;0.57;;;;;;;;;;6241395;28;20212;-49
2023/03/21 14:09:42;;;;;;;0.77;0.75;;;;;;;;;;6241395;28;20225;-49
2023/03/21 14:12:45;;;;;;;0.95;0.70;;;36.50;18.80;;;;;;6240545;28;20179;-50
2023/03/21 14:15:50;;;;;;;0.70;0.70;;;38.30;18.20;;;;;;6273508;28;20194;-55
2023/03/21 14:18:53;;;;;;;1.05;0.90;;;;;;;;;;6246343;28;20186;-55
2023/03/21 14:21:55;;;;;;;1.27;0.80;;;40.00;17.60;;;;;;6275566;28;20194;-53
2023/03/21 14:25:01;;;;;;;0.70;0.70;;;40.50;17.60;;;;;;6262790;28;20218;-56
2023/03/21 14:28:04;;;;;;;1.38;1.02;;;;;;;;;;6262883;28;20258;-54
2023/03/21 14:31:05;;;;;;;2.83;1.40;;;;;;;;;;6244679;28;20238;-53
2023/03/21 14:34:06;;;;;;;3.80;1.00;;;38.30;18.20;;;;;;6277727;28;20251;-52
2023/03/21 14:37:10;;;;;;;3.40;1.00;;;29.80;22.80;;;;;;6255738;28;20190;-52
2023/03/21 14:40:21;;;;;;;1.70;0.80;;;;;;;;;;6250011;28;20197;-54
2023/03/21 14:43:23;;;;;;;2.30;1.00;;;;;;;;;;6245853;28;20243;-50
2023/03/21 14:46:25;;;;;;;2.03;1.00;;;28.30;23.80;;;;;;6267414;28;20233;-51
2023/03/21 14:49:34;;;;;;;2.23;1.20;;;24.40;27.00;;;;;;6245649;28;20202;-50
2023/03/21 14:52:37;;;;;;;1.20;1.10;;;23.60;27.80;;;;;;6250838;28;20266;-49
2023/03/21 14:55:42;;;;;;;2.17;1.50;;;;;;;;;;6236302;28;20191;-48
2023/03/21 14:58:44;;;;;;;2.77;1.30;;;;;;;;;;6236900;28;20217;-49
2023/03/21 15:01:46;;;;;;;1.87;1.20;;;;;;;;;;6243411;28;20203;-50
2023/03/21 15:04:58;;;;;;;1.73;1.00;;;;;;;;;;6267694;28;20236;-50
2023/03/21 15:08:00;;;;;;;1.50;1.03;;;;;;;;;;6250146;28;20191;-50
2023/03/21 15:11:02;;;;;;;1.33;1.00;;;;;;;;;;6246448;28;20206;-48
2023/03/21 15:14:08;;;;;;;1.50;1.10;;;;;;;;;;6247076;28;20187;-48
2023/03/21 15:17:09;;;;;;;0.90;0.90;;;;;;;;;;6274406;28;20191;-50
2023/03/21 15:20:14;;;;;;;1.73;1.20;;;;;;;;;;6239483;28;20187;-48
2023/03/21 15:23:24;;;;;;;2.43;1.10;;;;;;;;;;6251034;28;20245;-49
2023/03/21 15:26:26;;;;;;;1.80;0.87;;;;;;;;;;6264808;28;20648;-51
2023/03/21 15:29:27;;;;;;;1.67;0.90;;;;;;;;;;6247519;28;20198;-50
2023/03/21 15:32:28;;;;;;;2.10;0.90;;;;;;;;;;6245465;28;20191;-51
2023/03/21 15:35:32;;;;;;;2.33;1.00;;;;;;;;;;6251070;28;20193;-52
2023/03/21 15:38:43;;;;;;;1.50;0.90;;;;;;;;;;6242108;28;20246;-52
2023/03/21 15:42:02;;;;;;;0.90;0.90;;;;;;;;;;6243205;28;20202;-51
2023/03/21 15:45:13;;;;;;;0.70;0.60;;;;;;;;;;6244476;28;20278;-52
2023/03/21 15:48:14;;;;;;;1.20;0.87;;;;;;;;;;6243605;28;20191;-47
2023/03/21 15:51:21;;;;;;;3.47;0.70;;;;;;;;;;6256697;28;20191;-49
2023/03/21 15:54:24;;;;;;;2.50;0.83;;;;;;;;;;6240379;28;20175;-49
2023/03/21 15:57:28;;;;;;;2.07;0.93;;;;;;;;;;6254836;28;20190;-50
2023/03/21 16:00:39;;;;;;;1.13;0.97;;;;;;;;;;6250037;28;20229;-54
2023/03/21 16:03:44;;;;;;;1.43;0.90;;;;;;;;;;6252889;28;20252;-49
2023/03/21 16:07:13;;;;;;;1.40;0.90;;;;;;;;;;6254892;28;20199;-51
2023/03/21 16:10:26;;;;;;;1.30;0.90;;;;;;;;;;6250092;28;20191;-51
2023/03/21 16:13:27;;;;;;;1.13;0.90;;;;;;;;;;6248074;28;20230;-51
2023/03/21 16:16:29;;;;;;;1.07;0.80;;;;;;;;;;6263098;28;20195;-52
2023/03/21 16:19:30;;;;;;;0.93;0.73;;;;;;;;;;6260142;28;20198;-55
2023/03/21 16:22:34;;;;;;;2.80;0.90;;;;;;;;;;6239069;28;20717;-51
2023/03/21 16:25:35;;;;;;;2.13;1.10;;;;;;;;;;6245068;28;20357;-49
2023/03/21 16:28:36;;;;;;;2.43;1.20;;;;;;;;;;6263965;28;20281;-50
2023/03/21 16:31:37;;;;;;;1.10;1.00;;;;;;;;;;6239231;28;20266;-49
2023/03/21 16:34:40;;;;;;;1.00;0.70;;;;;;;;;;6260268;28;20218;-50
2023/03/21 16:37:42;;;;;;;1.00;0.90;;;;;;;;;;6261871;28;20206;-51
2023/03/21 16:40:43;;;;;;;1.43;0.70;;;;;;;;;;6242983;28;20207;-49
2023/03/21 16:43:45;;;;;;;5.70;1.13;;;;;;;;;;6244026;28;20217;-55
2023/03/21 16:46:46;;;;;;;1.40;1.10;;;;;;;;;;6235809;28;20214;-50
2023/03/21 16:49:47;;;;;;;1.17;0.93;;;;;;;;;;6245720;28;20411;-50
2023/03/21 16:52:48;;;;;;;1.90;0.90;;;;;;;;;;6248654;28;20205;-54
2023/03/21 16:55:50;;;;;;;0.70;0.70;;;;;;;;;;6262496;28;20194;-49
2023/03/21 16:58:51;;;;;;;1.60;0.93;;;;;;;;;;6241852;28;20195;-51
2023/03/21 17:01:52;;;;;;;1.40;0.90;;;;;;;;;;6244004;28;20234;-54
2023/03/21 17:04:53;;;;;;;1.87;0.73;;;;;;;;;;6259259;28;20309;-50
2023/03/21 17:07:54;;;;;;;1.27;1.00;;;;;;;;;;6221917;28;20201;-51
2023/03/21 17:10:57;;;;;;;0.73;0.73;;;;;;;;;;6227781;28;20195;-51
2023/03/21 17:13:58;;;;;;;2.43;1.00;;;;;;;;;;6260556;28;20206;-54
2023/03/21 17:17:00;;;;;;;1.00;0.80;;;;;;;;;;6263125;28;20194;-48
2023/03/21 17:20:02;;;;;;;3.43;1.30;;;;;;;;;;6224344;28;20203;-52
2023/03/21 17:23:03;;;;;;;1.53;0.93;;;;;;;;;;6261581;28;20203;-50
2023/03/21 17:26:08;;;;;;;2.37;1.00;;;;;;;;;;6260695;28;20258;-47
2023/03/21 17:29:12;;;;;;;2.53;1.23;;;;;;;;;;6241765;28;20219;-51
2023/03/21 17:32:13;;;;;;;1.13;1.00;;;;;;;;;;6245976;28;20241;-53
2023/03/21 17:35:15;;;;;;;2.13;1.00;;;;;;;;;;6246462;28;20201;-51
2023/03/21 17:38:17;;;;;;;1.50;0.93;;;;;;;;;;6244107;28;20219;-51
2023/03/21 17:41:19;;;;;;;1.60;1.07;;;;;;;;;;6263193;28;20206;-51
2023/03/21 17:44:21;;;;;;;2.73;1.53;;;;;;;;;;6238617;28;20214;-52
2023/03/21 17:47:24;;;;;;;2.70;1.20;;;;;;;;;;6238699;28;20214;-54
2023/03/21 17:50:27;;;;;;;2.13;1.00;;;;;;;;;;6259167;28;20191;-54
2023/03/21 17:53:28;;;;;;;4.03;1.00;;;;;;;;;;6243681;28;20219;-51
2023/03/21 17:56:30;;;;;;;1.80;1.20;;;;;;;;;;6221355;28;20191;-50
2023/03/21 17:59:31;;;;;;;1.33;1.17;;;;;;;;;;6246180;28;20249;-53
2023/03/21 18:02:33;;;;;;;1.20;0.90;;;;;;;;;;6258535;28;20202;-52
2023/03/21 18:05:34;;;;;;;1.00;0.90;;;;;;;;;;6251165;28;20237;-52
2023/03/21 18:08:35;;;;;;;3.10;1.20;;;;;;;;;;6260707;28;20237;-50
2023/03/21 18:11:40;;;;;;;1.80;1.47;;;;;;;;;;6245806;28;20264;-51